Time;durP1;ratioP1;P1;durP2;ratioP2;P2;SDS_P1;SDS_P2;PMS_P1;PMS_P2;Temp;Humidity;BMP_temperature;BMP_pressure;BME280_temperature;BME280_humidity;BME280_pressure;Samples;Min_cycle;Max_cycle;Signal;HPM_P1;HPM_P2
2022/01/23 00:01:49;;;;;;;10.77;4.60;;;7.30;99.90;;;;;;5010041;28;20069;-62
2022/01/23 00:04:15;;;;;;;12.35;5.05;;;7.30;99.90;;;;;;5027883;28;20049;-62
2022/01/23 00:06:40;;;;;;;6.00;3.33;;;7.30;99.90;;;;;;5029514;28;20060;-62
2022/01/23 00:09:06;;;;;;;10.90;4.07;;;7.30;99.90;;;;;;5017489;28;20042;-62
2022/01/23 00:11:35;;;;;;;8.93;4.18;;;7.30;99.90;;;;;;5009657;28;20050;-62
2022/01/23 00:19:14;;;;;;;12.63;3.20;;;7.30;99.90;;;;;;5011440;28;20520;-62
2022/01/23 00:21:41;;;;;;;10.90;3.55;;;7.20;99.90;;;;;;5009572;28;20049;-62
2022/01/23 00:32:04;;;;;;;11.20;3.60;;;7.30;99.90;;;;;;5024852;28;20409;-62
2022/01/23 00:34:30;;;;;;;12.07;3.47;;;7.30;99.90;;;;;;5026592;28;20046;-62
2022/01/23 00:36:55;;;;;;;9.57;2.75;;;7.30;99.90;;;;;;5009217;28;20108;-62
2022/01/23 00:39:21;;;;;;;8.05;2.90;;;7.30;99.90;;;;;;5027702;28;20049;-62
2022/01/23 00:41:46;;;;;;;7.55;3.60;;;7.30;99.90;;;;;;5018914;28;20053;-62
2022/01/23 00:44:12;;;;;;;6.85;2.85;;;7.30;99.90;;;;;;5009194;28;20453;-62
2022/01/23 00:46:40;;;;;;;6.95;3.00;;;7.30;99.90;;;;;;5008309;28;20030;-62
2022/01/23 00:51:39;;;;;;;8.18;3.30;;;7.20;99.90;;;;;;5018142;28;20053;-62
2022/01/23 00:54:08;;;;;;;9.15;4.00;;;7.20;99.90;;;;;;5023744;28;20053;-62
2022/01/23 00:56:34;;;;;;;9.10;3.63;;;7.20;99.90;;;;;;4991178;28;20045;-62
2022/01/23 00:59:00;;;;;;;6.50;3.00;;;7.10;99.90;;;;;;5008305;28;20073;-62
2022/01/23 01:01:26;;;;;;;7.85;3.70;;;7.10;99.90;;;;;;5009346;28;20108;-62
2022/01/23 01:03:52;;;;;;;6.78;3.60;;;7.10;99.90;;;;;;5001185;28;20050;-62
2022/01/23 01:06:17;;;;;;;11.10;3.63;;;7.10;99.90;;;;;;5010605;28;20534;-62
2022/01/23 01:08:46;;;;;;;9.25;3.65;;;7.10;99.90;;;;;;5014012;28;20048;-62
2022/01/23 01:32:52;;;;;;;7.25;4.07;;;7.10;99.90;;;;;;4977138;28;20080;-63
2022/01/23 01:37:52;;;;;;;10.88;3.50;;;7.10;99.90;;;;;;5008662;28;20451;-62
2022/01/23 01:40:19;;;;;;;8.48;3.42;;;7.10;99.90;;;;;;5020878;28;20138;-62
2022/01/23 01:42:45;;;;;;;14.40;4.57;;;7.00;99.90;;;;;;5027431;28;20044;-62
2022/01/23 01:45:11;;;;;;;10.70;3.92;;;7.10;99.90;;;;;;5026048;28;20459;-62
2022/01/23 01:47:37;;;;;;;6.97;3.78;;;7.00;99.90;;;;;;5028156;28;20059;-62
2022/01/23 01:50:04;;;;;;;7.22;3.47;;;7.10;99.90;;;;;;5025197;28;20038;-62
2022/01/23 01:52:31;;;;;;;6.25;3.45;;;7.00;99.90;;;;;;5017841;28;20374;-62
2022/01/23 01:55:03;;;;;;;6.10;3.55;;;7.10;99.90;;;;;;5011205;28;20535;-62
2022/01/23 01:57:35;;;;;;;11.43;4.80;;;7.10;99.90;;;;;;5020671;28;20064;-62
2022/01/23 02:00:37;;;;;;;9.30;3.70;;;7.00;99.90;;;;;;5008757;28;20108;-62
2022/01/23 02:08:27;;;;;;;8.75;3.50;;;7.00;99.90;;;;;;5016806;28;20107;-62
2022/01/23 02:11:00;;;;;;;6.05;3.15;;;7.00;99.90;;;;;;5008040;28;20068;-62
2022/01/23 02:16:32;;;;;;;5.82;3.10;;;7.00;99.90;;;;;;5025375;28;20057;-62
2022/01/23 02:50:39;;;;;;;6.68;3.65;;;6.90;99.90;;;;;;5010872;28;20069;-62
2022/01/23 02:54:42;;;;;;;5.75;2.40;;;7.00;99.90;;;;;;5014364;28;20136;-62
2022/01/23 02:57:09;;;;;;;6.30;2.40;;;7.00;99.90;;;;;;5011576;28;20054;-62
2022/01/23 02:59:39;;;;;;;5.97;2.53;;;7.00;99.90;;;;;;5016365;28;20070;-62
2022/01/23 03:04:53;;;;;;;7.10;3.17;;;7.00;99.90;;;;;;5026499;28;20052;-62
2022/01/23 03:15:09;;;;;;;3.38;2.22;;;7.00;99.90;;;;;;5010677;28;20516;-62
2022/01/23 03:29:00;;;;;;;6.10;2.08;;;7.00;99.90;;;;;;5029029;28;20041;-62
2022/01/23 03:31:30;;;;;;;3.47;1.95;;;7.00;99.90;;;;;;5030007;28;20068;-62
2022/01/23 03:33:56;;;;;;;4.00;1.20;;;7.00;99.90;;;;;;5028433;28;20045;-62
2022/01/23 03:36:22;;;;;;;6.20;2.17;;;7.00;99.90;;;;;;5012825;28;20744;-62
2022/01/23 03:38:47;;;;;;;6.68;1.90;;;7.00;99.90;;;;;;5011762;28;20060;-63
2022/01/23 03:41:13;;;;;;;4.18;2.35;;;7.00;99.90;;;;;;5029729;28;20044;-62
2022/01/23 03:43:40;;;;;;;5.18;2.25;;;6.90;99.90;;;;;;5011076;28;20386;-63
2022/01/23 03:51:20;;;;;;;3.35;2.13;;;6.90;99.90;;;;;;5018371;28;20057;-62
2022/01/23 03:53:46;;;;;;;5.32;2.08;;;6.90;99.90;;;;;;5012273;28;20033;-62
2022/01/23 03:56:11;;;;;;;4.40;1.80;;;6.90;99.90;;;;;;5010824;28;20050;-62
2022/01/23 03:58:38;;;;;;;6.55;2.28;;;6.90;99.90;;;;;;5030479;28;20046;-62
2022/01/23 04:01:03;;;;;;;3.28;2.08;;;7.00;99.90;;;;;;5029595;28;20049;-62
2022/01/23 04:03:30;;;;;;;6.20;2.05;;;6.90;99.90;;;;;;5013527;28;20047;-62
2022/01/23 04:05:56;;;;;;;5.85;2.33;;;6.90;99.90;;;;;;5010772;28;20088;-62
2022/01/23 04:08:21;;;;;;;6.25;3.08;;;6.90;99.90;;;;;;5030188;28;20041;-62
2022/01/23 04:10:47;;;;;;;7.75;3.28;;;6.90;99.90;;;;;;5029011;28;20497;-62
2022/01/23 04:13:19;;;;;;;9.18;2.92;;;6.90;99.90;;;;;;5013383;28;20069;-62
2022/01/23 04:16:07;;;;;;;9.43;3.30;;;6.90;99.90;;;;;;5009462;28;20057;-62
2022/01/23 04:35:16;;;;;;;5.13;2.15;;;6.80;99.90;;;;;;5021895;28;20501;-62
2022/01/23 04:46:01;;;;;;;5.03;2.15;;;6.80;99.90;;;;;;5023783;28;20056;-62
2022/01/23 04:59:35;;;;;;;4.38;2.20;;;6.80;99.90;;;;;;5008794;28;20085;-62
2022/01/23 05:04:35;;;;;;;3.03;1.75;;;6.70;99.90;;;;;;5012568;28;20049;-62
2022/01/23 05:07:25;;;;;;;1.92;1.58;;;6.80;99.90;;;;;;5028278;28;20058;-62
2022/01/23 05:09:49;;;;;;;2.22;2.03;;;6.70;99.90;;;;;;5013562;28;20110;-62
2022/01/23 05:12:15;;;;;;;2.50;2.13;;;6.70;99.90;;;;;;5017914;28;20144;-62
2022/01/23 05:14:44;;;;;;;3.63;2.40;;;6.70;99.90;;;;;;5010418;28;20073;-62
2022/01/23 05:17:13;;;;;;;4.28;1.90;;;6.60;99.90;;;;;;5027202;28;20057;-62
2022/01/23 05:19:40;;;;;;;4.97;2.63;;;6.60;99.90;;;;;;5026666;28;20045;-62
2022/01/23 05:24:37;;;;;;;4.00;1.85;;;6.60;99.90;;;;;;5009198;28;20042;-62
2022/01/23 05:27:06;;;;;;;5.55;2.50;;;6.60;99.90;;;;;;5007826;28;20057;-62
2022/01/23 05:29:33;;;;;;;3.67;2.60;;;6.60;99.90;;;;;;5008972;28;20049;-62
2022/01/23 05:31:59;;;;;;;4.00;3.13;;;6.60;99.90;;;;;;5013783;28;20058;-62
2022/01/23 05:34:25;;;;;;;5.10;3.22;;;6.70;99.90;;;;;;5015541;28;20060;-62
2022/01/23 05:36:51;;;;;;;3.00;2.15;;;6.60;99.90;;;;;;5023450;28;20053;-62
2022/01/23 05:39:22;;;;;;;3.53;2.60;;;6.60;99.90;;;;;;5008479;28;20045;-62
2022/01/23 05:41:54;;;;;;;2.78;2.35;;;6.60;99.90;;;;;;4998544;28;20137;-62
2022/01/23 05:44:20;;;;;;;6.22;2.70;;;6.60;99.90;;;;;;5008644;28;20506;-62
2022/01/23 05:46:46;;;;;;;2.67;2.30;;;6.70;99.90;;;;;;5023322;28;20041;-62
2022/01/23 05:49:12;;;;;;;3.25;2.78;;;6.70;99.90;;;;;;5027134;28;20344;-62
2022/01/23 05:51:37;;;;;;;2.40;2.05;;;6.70;99.90;;;;;;5026382;28;20076;-62
2022/01/23 05:54:03;;;;;;;2.88;2.30;;;6.70;99.90;;;;;;5010259;28;20046;-62
2022/01/23 05:56:29;;;;;;;3.00;2.17;;;6.80;99.90;;;;;;5026442;28;20049;-62
2022/01/23 05:58:55;;;;;;;5.07;1.95;;;6.80;99.90;;;;;;5027475;28;20045;-62
2022/01/23 06:01:20;;;;;;;4.13;1.92;;;6.80;99.90;;;;;;5027778;28;20041;-62
2022/01/23 06:03:46;;;;;;;2.33;1.55;;;6.80;99.90;;;;;;5018602;28;20049;-62
2022/01/23 06:06:11;;;;;;;4.40;1.88;;;6.80;99.90;;;;;;5008195;28;20050;-62
2022/01/23 06:08:37;;;;;;;5.55;2.67;;;6.70;99.90;;;;;;5007989;28;20042;-62
2022/01/23 06:11:03;;;;;;;3.15;1.85;;;6.70;99.90;;;;;;5006897;28;20124;-62
2022/01/23 06:13:29;;;;;;;3.63;1.50;;;6.70;99.90;;;;;;5006474;28;20084;-62
2022/01/23 06:15:55;;;;;;;2.85;2.00;;;6.70;99.90;;;;;;5025597;28;20068;-62
2022/01/23 06:18:21;;;;;;;3.63;2.20;;;6.70;99.90;;;;;;5031741;28;20049;-62
2022/01/23 06:20:46;;;;;;;5.50;2.28;;;6.70;99.90;;;;;;5021528;28;20072;-62
2022/01/23 06:23:13;;;;;;;3.03;2.20;;;6.70;99.90;;;;;;5006175;28;20560;-62
2022/01/23 06:25:43;;;;;;;3.83;2.47;;;6.70;99.90;;;;;;5031849;28;20045;-62
2022/01/23 06:28:09;;;;;;;4.30;2.00;;;6.70;99.90;;;;;;5030068;28;20107;-62
2022/01/23 06:30:35;;;;;;;2.85;2.00;;;6.70;99.90;;;;;;5026585;28;20568;-62
2022/01/23 06:33:03;;;;;;;4.72;2.33;;;6.70;99.90;;;;;;5018184;28;20424;-62
2022/01/23 06:35:29;;;;;;;3.80;1.95;;;6.70;99.90;;;;;;5012438;28;20045;-62
2022/01/23 06:37:54;;;;;;;2.53;2.17;;;6.70;99.90;;;;;;5011033;28;20096;-62
2022/01/23 06:40:20;;;;;;;5.30;2.58;;;6.70;99.90;;;;;;5022403;28;20505;-62
2022/01/23 06:42:46;;;;;;;5.03;2.28;;;6.60;99.90;;;;;;5024029;28;20030;-62
2022/01/23 06:45:11;;;;;;;5.03;2.15;;;6.70;99.90;;;;;;5016720;28;20129;-62
2022/01/23 06:47:37;;;;;;;2.60;2.03;;;6.60;99.90;;;;;;5013668;28;20054;-62
2022/01/23 06:50:04;;;;;;;2.80;2.17;;;6.70;99.90;;;;;;5012821;28;20485;-62
2022/01/23 06:52:30;;;;;;;6.03;2.65;;;6.80;99.90;;;;;;5016991;28;20046;-62
2022/01/23 06:54:55;;;;;;;2.85;2.05;;;6.70;99.90;;;;;;5021279;28;20049;-62
2022/01/23 06:57:21;;;;;;;1.98;1.80;;;6.80;99.90;;;;;;5013746;28;20057;-62
2022/01/23 06:59:46;;;;;;;3.40;2.60;;;6.70;99.90;;;;;;5030525;28;20057;-62
2022/01/23 07:02:12;;;;;;;4.45;2.15;;;6.70;99.90;;;;;;5025840;28;20101;-62
2022/01/23 07:04:37;;;;;;;3.28;2.10;;;6.70;99.90;;;;;;5014965;28;20049;-62
2022/01/23 07:07:03;;;;;;;2.67;2.10;;;6.70;99.90;;;;;;5015242;28;20103;-62
2022/01/23 07:09:29;;;;;;;3.00;2.25;;;6.80;99.90;;;;;;4994428;28;20045;-62
2022/01/23 07:11:55;;;;;;;4.68;2.92;;;6.80;99.90;;;;;;4992805;28;20164;-62
2022/01/23 07:14:20;;;;;;;7.90;2.70;;;6.80;99.90;;;;;;5021613;28;20053;-62
2022/01/23 07:16:46;;;;;;;3.22;2.63;;;6.80;99.90;;;;;;5027135;28;20057;-62
2022/01/23 07:19:13;;;;;;;7.20;2.78;;;6.70;99.90;;;;;;5030469;28;20657;-62
2022/01/23 07:21:39;;;;;;;4.28;2.50;;;6.80;99.90;;;;;;5023584;28;20049;-62
2022/01/23 07:24:04;;;;;;;3.72;2.20;;;6.80;99.90;;;;;;5016623;28;20038;-62
2022/01/23 07:26:31;;;;;;;4.63;2.55;;;6.80;99.90;;;;;;5017629;28;20046;-62
2022/01/23 07:29:00;;;;;;;5.03;2.33;;;6.80;99.90;;;;;;5030440;28;20045;-62
2022/01/23 07:34:02;;;;;;;4.82;2.35;;;6.70;99.90;;;;;;5020382;28;20053;-62
2022/01/23 07:36:28;;;;;;;6.10;3.00;;;6.80;99.90;;;;;;5026479;28;20132;-62
2022/01/23 07:38:54;;;;;;;4.07;2.72;;;6.80;99.90;;;;;;5011043;28;20042;-62
2022/01/23 07:41:20;;;;;;;4.13;2.67;;;6.80;99.90;;;;;;5009007;28;20430;-62
2022/01/23 07:43:45;;;;;;;3.63;2.40;;;6.90;99.90;;;;;;4993336;28;20052;-62
2022/01/23 07:46:11;;;;;;;3.85;2.92;;;6.80;99.90;;;;;;5010606;28;20077;-62
2022/01/23 07:48:36;;;;;;;5.95;3.03;;;6.90;99.90;;;;;;5014206;28;20073;-62
2022/01/23 07:51:02;;;;;;;4.45;2.92;;;6.90;99.90;;;;;;5024268;28;20049;-62
2022/01/23 07:53:27;;;;;;;5.28;3.10;;;6.90;99.90;;;;;;4994277;28;20062;-62
2022/01/23 07:55:53;;;;;;;6.22;3.17;;;6.80;99.90;;;;;;5015111;28;20688;-62
2022/01/23 07:58:18;;;;;;;5.80;3.55;;;6.80;99.90;;;;;;5030058;28;20041;-62
2022/01/23 08:00:44;;;;;;;7.22;3.60;;;6.90;99.90;;;;;;5030347;28;20042;-62
2022/01/23 08:03:10;;;;;;;5.97;3.05;;;6.80;99.90;;;;;;5023517;28;20045;-62
2022/01/23 08:05:37;;;;;;;4.88;3.47;;;6.80;99.90;;;;;;5013325;28;20040;-62
2022/01/23 08:08:03;;;;;;;7.28;3.67;;;6.80;99.90;;;;;;5011056;28;20057;-62
2022/01/23 08:10:28;;;;;;;6.50;3.47;;;6.80;99.90;;;;;;5024397;28;20504;-62
2022/01/23 08:12:54;;;;;;;7.60;3.72;;;6.80;99.90;;;;;;5029176;28;20473;-62
2022/01/23 08:15:20;;;;;;;9.15;4.03;;;6.80;99.90;;;;;;5020397;28;20034;-62
2022/01/23 08:17:45;;;;;;;11.73;5.18;;;6.90;99.90;;;;;;5010028;28;20073;-62
2022/01/23 08:20:11;;;;;;;8.30;5.38;;;6.80;99.90;;;;;;5011299;28;20116;-63
2022/01/23 08:22:37;;;;;;;13.18;5.32;;;6.90;99.90;;;;;;5015127;28;20050;-62
2022/01/23 08:25:03;;;;;;;9.70;5.75;;;6.90;99.90;;;;;;4998533;28;20089;-62
2022/01/23 08:27:29;;;;;;;11.55;6.88;;;6.80;99.90;;;;;;5019218;28;20041;-62
2022/01/23 08:29:56;;;;;;;10.05;5.97;;;6.90;99.90;;;;;;5013387;28;20042;-63
2022/01/23 08:32:21;;;;;;;10.80;6.05;;;6.90;99.90;;;;;;5014653;28;20091;-63
2022/01/23 08:34:47;;;;;;;14.48;6.97;;;6.90;99.90;;;;;;5018494;28;20081;-63
2022/01/23 08:37:13;;;;;;;12.20;7.55;;;6.80;99.90;;;;;;5019714;28;20374;-62
2022/01/23 08:39:39;;;;;;;9.13;7.07;;;6.90;99.90;;;;;;5009599;28;20139;-63
2022/01/23 08:42:08;;;;;;;16.02;8.45;;;6.90;99.90;;;;;;5009656;28;20092;-63
2022/01/23 08:44:35;;;;;;;13.27;7.57;;;6.90;99.90;;;;;;5015917;28;20045;-63
2022/01/23 08:47:01;;;;;;;14.82;8.10;;;6.90;99.90;;;;;;5009422;28;20695;-62
2022/01/23 08:49:28;;;;;;;15.25;7.88;;;6.90;99.90;;;;;;5009654;28;20038;-63
2022/01/23 08:51:55;;;;;;;11.63;7.13;;;6.90;99.90;;;;;;5027193;28;20055;-63
2022/01/23 08:54:21;;;;;;;16.40;8.02;;;6.90;99.90;;;;;;5011591;28;20049;-62
2022/01/23 08:56:47;;;;;;;13.70;7.35;;;6.90;99.90;;;;;;5023306;28;20068;-62
2022/01/23 08:59:13;;;;;;;16.40;7.68;;;6.90;99.90;;;;;;5013572;28;20050;-63
2022/01/23 09:01:38;;;;;;;13.40;7.65;;;7.00;99.90;;;;;;5022576;28;20081;-62
2022/01/23 09:04:05;;;;;;;12.82;7.55;;;7.00;99.90;;;;;;5027300;28;20620;-62
2022/01/23 09:06:31;;;;;;;14.90;7.60;;;7.00;99.90;;;;;;5016407;28;20049;-63
2022/01/23 09:08:59;;;;;;;14.88;7.32;;;7.00;99.90;;;;;;5012583;28;20053;-62
2022/01/23 09:14:05;;;;;;;12.95;7.30;;;7.00;99.90;;;;;;5016066;28;20045;-62
2022/01/23 09:16:31;;;;;;;13.82;6.75;;;7.10;99.90;;;;;;5016829;28;20041;-63
2022/01/23 09:18:57;;;;;;;14.05;6.13;;;7.10;99.90;;;;;;5024741;28;20037;-63
2022/01/23 09:21:22;;;;;;;8.90;6.32;;;7.10;99.90;;;;;;5016107;28;20046;-62
2022/01/23 09:23:48;;;;;;;13.43;6.28;;;7.10;99.90;;;;;;5008860;28;20184;-63
2022/01/23 09:26:17;;;;;;;11.20;5.55;;;7.10;99.90;;;;;;5008278;28;20806;-62
2022/01/23 09:28:44;;;;;;;11.30;6.80;;;7.10;99.90;;;;;;5019273;28;20042;-62
2022/01/23 09:31:12;;;;;;;11.70;6.93;;;7.10;99.90;;;;;;5010965;28;20450;-63
2022/01/23 09:33:38;;;;;;;12.32;6.28;;;7.20;99.90;;;;;;5006972;28;20073;-63
2022/01/23 09:36:04;;;;;;;12.80;7.28;;;7.20;99.90;;;;;;5018868;28;20093;-62
2022/01/23 09:38:29;;;;;;;11.48;6.07;;;7.20;99.90;;;;;;5027634;28;20052;-62
2022/01/23 09:40:58;;;;;;;11.73;6.43;;;7.20;99.90;;;;;;5021895;28;20042;-63
2022/01/23 09:43:25;;;;;;;8.57;6.57;;;7.10;99.90;;;;;;5026231;28;20444;-62
2022/01/23 09:45:53;;;;;;;10.57;6.47;;;7.20;99.90;;;;;;5026097;28;20045;-63
2022/01/23 09:48:21;;;;;;;11.20;6.38;;;7.20;99.90;;;;;;5012679;28;20564;-62
2022/01/23 09:50:48;;;;;;;14.85;6.60;;;7.10;99.90;;;;;;5012440;28;20100;-62
2022/01/23 09:53:15;;;;;;;11.60;6.65;;;7.10;99.90;;;;;;5019840;28;20064;-62
2022/01/23 09:55:45;;;;;;;12.40;7.10;;;7.20;99.90;;;;;;5019851;28;20437;-62
2022/01/23 09:58:12;;;;;;;14.23;6.72;;;7.20;99.90;;;;;;5008342;28;20050;-62
2022/01/23 10:00:37;;;;;;;13.65;6.03;;;7.20;99.90;;;;;;5008112;28;20741;-62
2022/01/23 10:03:03;;;;;;;8.95;5.78;;;7.20;99.90;;;;;;5002146;28;20045;-62
2022/01/23 10:05:29;;;;;;;10.23;5.93;;;7.20;99.90;;;;;;5022569;28;20048;-62
2022/01/23 10:07:55;;;;;;;11.80;6.97;;;7.30;99.90;;;;;;5008207;28;20054;-61
2022/01/23 10:10:31;;;;;;;11.05;5.78;;;7.20;99.90;;;;;;4998892;28;20050;-62
2022/01/23 10:12:59;;;;;;;8.80;5.68;;;7.20;99.90;;;;;;5012837;28;20096;-62
2022/01/23 10:15:28;;;;;;;11.52;6.95;;;7.20;99.90;;;;;;5007844;28;20497;-62
2022/01/23 10:17:54;;;;;;;13.18;7.50;;;7.20;99.90;;;;;;5008160;28;20613;-63
2022/01/23 10:20:20;;;;;;;15.00;7.95;;;7.20;99.90;;;;;;5017638;28;20045;-63
2022/01/23 10:22:49;;;;;;;13.10;8.52;;;7.20;99.90;;;;;;5015720;28;20049;-63
2022/01/23 10:25:30;;;;;;;12.40;8.32;;;7.20;99.90;;;;;;5017216;28;20447;-63
2022/01/23 10:28:06;;;;;;;16.50;7.22;;;7.20;99.90;;;;;;5019040;28;20052;-63
2022/01/23 10:30:39;;;;;;;14.30;9.30;;;7.10;99.90;;;;;;5013155;28;20042;-63
2022/01/23 10:33:10;;;;;;;14.67;8.37;;;7.20;99.90;;;;;;5022667;28;20152;-63
2022/01/23 10:36:01;;;;;;;16.80;8.93;;;7.20;99.90;;;;;;5018519;28;20453;-62
2022/01/23 10:39:01;;;;;;;17.42;8.02;;;7.20;99.90;;;;;;5012630;28;20058;-62
2022/01/23 10:41:45;;;;;;;15.88;9.27;;;7.20;99.90;;;;;;5019352;28;20120;-63
2022/01/23 10:49:49;;;;;;;12.43;7.95;;;7.30;99.90;;;;;;5008224;28;20050;-62
2022/01/23 10:52:45;;;;;;;11.90;7.97;;;7.30;99.90;;;;;;5007340;28;20046;-62
2022/01/23 10:55:11;;;;;;;21.73;9.75;;;7.30;99.90;;;;;;4991388;28;20049;-63
2022/01/23 10:57:37;;;;;;;16.35;9.40;;;7.40;99.90;;;;;;5027139;28;20049;-62
2022/01/23 11:00:06;;;;;;;14.07;9.25;;;7.40;99.90;;;;;;5026076;28;20389;-62
2022/01/23 11:02:37;;;;;;;11.85;8.07;;;7.40;99.90;;;;;;5019248;28;20724;-63
2022/01/23 11:05:08;;;;;;;12.95;7.85;;;7.40;99.90;;;;;;5014908;28;20099;-62
2022/01/23 11:07:38;;;;;;;15.80;9.00;;;7.50;99.90;;;;;;5021822;28;20051;-62
2022/01/23 11:10:07;;;;;;;16.08;7.65;;;7.50;99.90;;;;;;5005922;28;20049;-63
2022/01/23 11:17:55;;;;;;;13.60;7.47;;;7.50;99.90;;;;;;5012757;28;20528;-63
2022/01/23 11:20:36;;;;;;;13.63;8.57;;;7.50;99.90;;;;;;4994319;28;20513;-62
2022/01/23 11:23:03;;;;;;;10.95;7.35;;;7.50;99.90;;;;;;5030573;28;20049;-63
2022/01/23 11:25:29;;;;;;;11.73;7.88;;;7.50;99.90;;;;;;5029016;28;20041;-62
2022/01/23 11:28:02;;;;;;;14.23;7.93;;;7.60;99.90;;;;;;5030701;28;20045;-62
2022/01/23 11:30:54;;;;;;;;;;;7.60;99.90;;;;;;5013498;28;20053;-62
2022/01/23 11:33:20;;;;;;;8.93;6.10;;;7.50;99.90;;;;;;5021742;28;20396;-62
2022/01/23 11:35:47;;;;;;;11.43;7.28;;;7.60;99.90;;;;;;5010682;28;20046;-63
2022/01/23 11:38:19;;;;;;;10.43;6.55;;;7.60;99.90;;;;;;5005570;28;20441;-63
2022/01/23 11:54:44;;;;;;;16.67;6.07;;;7.80;99.90;;;;;;5030061;28;20056;-63
2022/01/23 11:57:38;;;;;;;8.88;5.78;;;7.80;99.90;;;;;;5029700;28;20107;-62
2022/01/23 12:00:11;;;;;;;6.57;4.78;;;7.80;99.90;;;;;;5011560;28;20497;-63
2022/01/23 12:02:40;;;;;;;;;;;7.80;99.90;;;;;;5009783;28;20056;-63
2022/01/23 12:05:12;;;;;;;9.75;5.78;;;7.70;99.90;;;;;;5026187;28;20373;-63
2022/01/23 12:07:40;;;;;;;8.43;4.50;;;7.70;99.90;;;;;;5029815;28;20053;-63
2022/01/23 12:10:31;;;;;;;6.18;5.10;;;7.70;99.90;;;;;;5011067;28;20041;-63
2022/01/23 12:13:55;;;;;;;10.88;5.13;;;7.70;99.90;;;;;;5013744;28;20696;-62
2022/01/23 12:16:26;;;;;;;7.70;4.85;;;7.70;99.90;;;;;;5012379;28;20056;-63
2022/01/23 12:19:12;;;;;;;10.60;3.83;;;7.60;99.90;;;;;;5010316;28;20052;-63
2022/01/23 12:21:38;;;;;;;6.55;3.75;;;7.60;99.90;;;;;;5024832;28;20509;-63
2022/01/23 12:24:06;;;;;;;7.80;4.20;;;7.60;99.90;;;;;;5027612;28;20069;-63
2022/01/23 12:26:32;;;;;;;9.10;4.95;;;7.70;99.90;;;;;;5029764;28;20103;-63
2022/01/23 12:29:25;;;;;;;8.25;4.40;;;7.70;99.90;;;;;;5023885;28;20596;-62
2022/01/23 12:32:16;;;;;;;8.73;4.90;;;7.70;99.90;;;;;;5017388;28;20843;-62
2022/01/23 12:34:57;;;;;;;9.93;4.88;;;7.70;99.90;;;;;;5024754;28;20091;-63
2022/01/23 12:37:24;;;;;;;9.00;4.00;;;7.70;99.90;;;;;;5027190;28;20049;-62
2022/01/23 12:40:36;;;;;;;6.70;4.32;;;7.70;99.90;;;;;;5017689;28;20693;-62
2022/01/23 12:43:10;;;;;;;10.48;4.63;;;7.70;99.90;;;;;;5024665;28;20100;-62
2022/01/23 12:46:05;;;;;;;5.70;3.72;;;7.70;99.90;;;;;;5020089;28;20038;-62
2022/01/23 12:48:38;;;;;;;6.22;4.43;;;7.70;99.90;;;;;;5008362;28;20050;-63
2022/01/23 12:51:31;;;;;;;9.97;4.40;;;7.70;99.90;;;;;;5016119;28;20038;-62
2022/01/23 12:53:57;;;;;;;10.25;5.18;;;7.70;99.90;;;;;;5004505;28;20305;-63
2022/01/23 12:56:25;;;;;;;6.75;4.65;;;7.70;99.90;;;;;;5009379;28;20042;-62
2022/01/23 12:59:06;;;;;;;9.02;3.90;;;7.70;99.90;;;;;;5024170;28;20047;-62
2022/01/23 13:01:32;;;;;;;7.75;4.18;;;7.70;99.90;;;;;;5028931;28;20141;-63
2022/01/23 13:04:03;;;;;;;6.32;4.28;;;7.70;99.90;;;;;;5026716;28;20131;-62
2022/01/23 13:06:53;;;;;;;5.75;4.70;;;7.70;99.90;;;;;;5029231;28;20049;-62
2022/01/23 13:09:46;;;;;;;7.60;4.70;;;7.70;99.90;;;;;;5029030;28;20100;-63
2022/01/23 13:30:54;;;;;;;8.82;4.90;;;7.80;99.90;;;;;;4991054;28;20050;-62
2022/01/23 13:33:25;;;;;;;6.45;4.20;;;7.70;99.90;;;;;;5008146;28;20524;-62
2022/01/23 13:35:52;;;;;;;11.40;4.78;;;7.70;99.90;;;;;;5011969;28;20030;-63
2022/01/23 13:38:21;;;;;;;8.82;5.57;;;7.70;99.90;;;;;;4998970;28;20543;-62
2022/01/23 13:40:56;;;;;;;10.05;5.22;;;7.70;99.90;;;;;;5016469;28;20029;-63
2022/01/23 14:02:21;;;;;;;11.43;7.25;;;7.70;99.90;;;;;;5027922;28;20145;-62
2022/01/23 14:04:48;;;;;;;;;;;7.70;99.90;;;;;;5028536;28;20068;-62
2022/01/23 14:07:22;;;;;;;9.52;5.90;;;7.80;99.90;;;;;;5027100;28;20008;-63
2022/01/23 14:09:47;;;;;;;;;;;7.80;99.90;;;;;;5004634;28;20069;-63
2022/01/23 14:12:16;;;;;;;8.88;5.70;;;7.80;99.90;;;;;;5006754;28;20380;-62
2022/01/23 14:15:13;;;;;;;8.52;5.00;;;7.80;99.90;;;;;;5027773;28;20041;-62
2022/01/23 14:17:40;;;;;;;9.35;5.15;;;7.80;99.90;;;;;;5016840;28;20041;-63
2022/01/23 14:20:16;;;;;;;8.32;4.38;;;7.90;99.90;;;;;;5008053;28;20547;-63
2022/01/23 14:22:44;;;;;;;13.27;5.78;;;7.90;99.90;;;;;;5026303;28;20463;-62
2022/01/23 14:25:21;;;;;;;9.63;5.90;;;7.80;99.90;;;;;;5022670;28;20092;-61
2022/01/23 14:28:10;;;;;;;14.70;5.45;;;7.80;99.90;;;;;;5023387;28;20073;-63
2022/01/23 14:30:47;;;;;;;9.63;5.50;;;7.80;99.90;;;;;;5020548;28;20045;-62
2022/01/23 14:33:19;;;;;;;12.48;5.80;;;7.80;99.90;;;;;;5011906;28;20069;-62
2022/01/23 14:35:45;;;;;;;12.00;5.03;;;7.80;99.90;;;;;;5022396;28;20168;-62
2022/01/23 14:38:26;;;;;;;9.68;5.45;;;7.80;99.90;;;;;;5012473;28;20042;-62
2022/01/23 14:41:02;;;;;;;9.82;4.72;;;7.80;99.90;;;;;;5015789;28;20453;-61
2022/01/23 14:43:33;;;;;;;12.20;5.38;;;7.80;99.90;;;;;;5028846;28;20057;-62
2022/01/23 14:46:00;;;;;;;10.40;5.85;;;7.80;99.90;;;;;;5030785;28;20064;-62
2022/01/23 14:48:25;;;;;;;16.38;5.13;;;7.70;99.90;;;;;;5018608;28;20049;-64
2022/01/23 14:50:54;;;;;;;7.80;4.65;;;7.70;99.90;;;;;;5000838;28;20452;-62
2022/01/23 14:53:22;;;;;;;11.32;5.97;;;7.80;99.90;;;;;;5023759;28;20121;-62
2022/01/23 14:55:52;;;;;;;6.45;4.75;;;7.80;99.90;;;;;;5020541;28;20087;-63
2022/01/23 14:58:19;;;;;;;8.05;5.70;;;7.80;99.90;;;;;;5025131;28;20100;-62
2022/01/23 15:00:46;;;;;;;7.00;5.20;;;7.70;99.90;;;;;;5017954;28;20121;-62
2022/01/23 15:03:12;;;;;;;11.00;5.68;;;7.80;99.90;;;;;;5026193;28;20049;-62
2022/01/23 15:05:39;;;;;;;11.18;6.95;;;7.80;99.90;;;;;;5019962;28;20041;-62
2022/01/23 15:08:08;;;;;;;10.05;6.65;;;7.80;99.90;;;;;;5014108;28;20042;-62
2022/01/23 15:10:38;;;;;;;10.77;6.90;;;7.70;99.90;;;;;;5022923;28;20820;-62
2022/01/23 15:13:05;;;;;;;16.10;8.25;;;7.80;99.90;;;;;;5019621;28;20493;-63
2022/01/23 15:15:31;;;;;;;14.32;6.22;;;7.80;99.90;;;;;;4993859;28;20497;-62
2022/01/23 15:17:57;;;;;;;11.65;6.35;;;7.80;99.90;;;;;;5015887;28;20045;-63
2022/01/23 15:20:23;;;;;;;11.25;6.35;;;7.70;99.90;;;;;;5024046;28;20041;-62
2022/01/23 15:22:48;;;;;;;8.38;5.55;;;7.80;99.90;;;;;;5001397;28;20127;-62
2022/01/23 15:25:15;;;;;;;14.98;5.78;;;7.80;99.90;;;;;;5010563;28;20049;-63
2022/01/23 15:27:42;;;;;;;6.78;4.65;;;7.80;99.90;;;;;;5031113;28;20046;-62
2022/01/23 15:30:10;;;;;;;9.98;5.90;;;7.80;99.90;;;;;;5030589;28;20056;-62
2022/01/23 15:32:36;;;;;;;8.98;5.47;;;7.80;99.90;;;;;;5022244;28;20062;-63
2022/01/23 15:35:03;;;;;;;10.60;6.20;;;7.80;99.90;;;;;;5010875;28;20048;-62
2022/01/23 15:37:29;;;;;;;9.95;5.60;;;7.80;99.90;;;;;;5012238;28;20092;-62
2022/01/23 15:39:54;;;;;;;7.78;4.80;;;7.80;99.90;;;;;;5010505;28;20928;-62
2022/01/23 15:42:20;;;;;;;6.82;4.13;;;7.80;99.90;;;;;;4994086;28;20054;-62
2022/01/23 15:44:46;;;;;;;7.93;5.30;;;7.80;99.90;;;;;;5018888;28;20057;-62
2022/01/23 15:47:11;;;;;;;12.85;5.43;;;7.80;99.90;;;;;;5029446;28;20494;-62
2022/01/23 15:49:37;;;;;;;7.05;4.78;;;7.70;99.90;;;;;;5013415;28;20058;-62
2022/01/23 15:52:03;;;;;;;8.05;5.18;;;7.80;99.90;;;;;;5010353;28;20042;-62
2022/01/23 15:54:29;;;;;;;7.88;5.25;;;7.80;99.90;;;;;;5025354;28;20121;-63
2022/01/23 15:56:56;;;;;;;7.93;4.93;;;7.80;99.90;;;;;;5009667;28;20129;-62
2022/01/23 15:59:22;;;;;;;8.88;5.32;;;7.80;99.90;;;;;;5010469;28;20088;-62
2022/01/23 16:01:49;;;;;;;7.82;5.18;;;7.80;99.90;;;;;;5025332;28;20126;-62
2022/01/23 16:04:18;;;;;;;8.18;5.43;;;7.70;99.90;;;;;;5030289;28;20045;-62
2022/01/23 16:06:44;;;;;;;7.55;5.22;;;7.70;99.90;;;;;;5013132;28;20092;-62
2022/01/23 16:09:11;;;;;;;7.22;4.60;;;7.70;99.90;;;;;;5024430;28;20049;-62
2022/01/23 16:11:37;;;;;;;6.13;4.50;;;7.60;99.90;;;;;;4996482;28;20037;-62
2022/01/23 16:14:03;;;;;;;7.88;5.88;;;7.60;99.90;;;;;;5009418;28;20127;-62
2022/01/23 16:16:29;;;;;;;7.43;4.88;;;7.60;99.90;;;;;;5000042;28;20137;-62
2022/01/23 16:18:55;;;;;;;6.55;4.78;;;7.60;99.90;;;;;;5012203;28;20477;-62
2022/01/23 16:21:21;;;;;;;10.32;5.25;;;7.60;99.90;;;;;;5027449;28;20136;-62
2022/01/23 16:23:47;;;;;;;11.73;6.30;;;7.50;99.90;;;;;;5029288;28;20439;-62
2022/01/23 16:26:13;;;;;;;9.80;6.28;;;7.60;99.90;;;;;;5027939;28;20049;-62
2022/01/23 16:28:39;;;;;;;9.55;6.05;;;7.50;99.90;;;;;;5028250;28;20401;-62
2022/01/23 16:31:05;;;;;;;11.23;6.28;;;7.60;99.90;;;;;;5029094;28;20046;-62
2022/01/23 16:33:31;;;;;;;9.10;5.53;;;7.50;99.90;;;;;;5029675;28;20073;-61
2022/01/23 16:35:57;;;;;;;8.23;5.53;;;7.50;99.90;;;;;;5025938;28;20100;-62
2022/01/23 16:38:23;;;;;;;7.40;5.45;;;7.50;99.90;;;;;;5021519;28;20120;-61
2022/01/23 16:40:54;;;;;;;7.53;5.07;;;7.50;99.90;;;;;;5014497;28;20130;-62
2022/01/23 16:43:22;;;;;;;8.07;5.13;;;7.50;99.90;;;;;;5013057;28;20050;-62